createdAt,value
2023-04-15T00:00:28.050Z,4.8461
2023-04-15T00:01:28.607Z,4.9587
2023-04-15T00:02:29.258Z,4.9452
2023-04-15T00:03:30.087Z,4.9350
2023-04-15T00:04:30.983Z,4.8973
2023-04-15T00:05:31.538Z,5.0285
2023-04-15T00:06:32.100Z,5.1552
2023-04-15T00:07:32.637Z,5.0792
2023-04-15T00:08:33.198Z,5.0233
2023-04-15T00:09:34.308Z,5.0423
2023-04-15T00:10:34.833Z,5.0786
2023-04-15T00:11:35.366Z,5.0258
2023-04-15T00:12:36.064Z,5.0495
2023-04-15T00:13:36.569Z,5.0363
2023-04-15T00:14:37.147Z,4.9758
2023-04-15T00:15:37.714Z,4.9444
2023-04-15T00:16:38.318Z,4.8880
2023-04-15T00:17:38.905Z,4.8673
2023-04-15T00:18:39.466Z,4.9656
2023-04-15T00:19:40.294Z,5.0449
2023-04-15T00:20:40.814Z,5.1166
2023-04-15T00:21:41.333Z,5.0880
2023-04-15T00:22:41.891Z,5.0558
2023-04-15T00:23:42.446Z,4.9458
2023-04-15T00:24:43.256Z,4.7091
2023-04-15T00:25:43.851Z,4.6095
2023-04-15T00:26:44.375Z,4.6334
2023-04-15T00:27:44.945Z,4.5633
2023-04-15T00:28:45.514Z,4.4916
2023-04-15T00:29:46.311Z,4.4366
2023-04-15T00:30:46.944Z,4.4779
2023-04-15T00:31:47.471Z,4.4989
2023-04-15T00:32:48.086Z,4.4666
2023-04-15T00:33:48.624Z,4.3868
2023-04-15T00:34:49.156Z,4.3950
2023-04-15T00:35:49.681Z,4.3945
2023-04-15T00:36:50.248Z,4.4630
2023-04-15T00:37:50.806Z,4.5588
2023-04-15T00:38:51.388Z,4.6851
2023-04-15T00:39:52.012Z,4.6808
2023-04-15T00:40:52.558Z,4.6753
2023-04-15T00:41:53.129Z,4.7189
2023-04-15T00:42:53.666Z,4.7507
2023-04-15T00:43:54.212Z,4.7987
2023-04-15T00:44:54.781Z,4.8673
2023-04-15T00:45:55.440Z,4.8684
2023-04-15T00:46:56.315Z,4.9259
2023-04-15T00:47:56.934Z,5.0280
2023-04-15T00:48:57.836Z,5.1326
2023-04-15T00:49:58.406Z,5.1445
2023-04-15T00:50:58.973Z,5.1755
2023-04-15T00:51:59.728Z,5.1931
2023-04-15T00:53:00.313Z,5.2416
2023-04-15T00:54:00.850Z,5.2642
2023-04-15T00:55:01.445Z,5.2094
2023-04-15T00:56:02.011Z,5.1538
2023-04-15T00:57:02.667Z,5.0980
2023-04-15T00:59:06.310Z,5.0784
2023-04-15T01:00:06.921Z,5.0514
2023-04-15T01:01:09.115Z,5.1366
2023-04-15T01:02:09.749Z,5.1405
2023-04-15T01:07:13.785Z,5.1364
2023-04-15T01:10:53.283Z,5.1880
2023-04-15T01:11:47.022Z,5.0710
2023-04-15T01:12:47.577Z,5.0390
2023-04-15T01:13:48.294Z,5.0068
2023-04-15T01:14:48.382Z,4.9582
2023-04-15T01:15:49.021Z,4.9630
2023-04-15T01:16:49.829Z,4.9586
2023-04-15T01:17:50.414Z,4.9570
2023-04-15T01:18:50.947Z,4.9317
2023-04-15T01:19:51.501Z,4.8841
2023-04-15T01:20:52.034Z,4.8277
2023-04-15T01:21:52.697Z,4.8404
2023-04-15T01:22:53.180Z,4.8169
2023-04-15T01:23:53.734Z,4.8073
2023-04-15T01:24:54.473Z,4.7954
2023-04-15T01:25:55.019Z,4.7924
2023-04-15T01:26:55.604Z,4.8079
2023-04-15T01:28:10.865Z,4.8095
2023-04-15T01:28:57.291Z,4.8177
2023-04-15T01:29:57.891Z,4.8624
2023-04-15T01:30:58.391Z,5.1602
2023-04-15T01:31:59.052Z,5.1461
2023-04-15T01:32:59.640Z,5.1346
2023-04-15T01:34:00.207Z,5.1606
2023-04-15T01:35:00.717Z,5.2158
2023-04-15T01:36:01.249Z,5.2809
2023-04-15T01:37:01.881Z,5.3329
2023-04-15T01:38:02.461Z,5.3582
2023-04-15T01:39:03.099Z,5.3844
2023-04-15T01:40:03.727Z,5.3889
2023-04-15T01:41:04.301Z,5.3651
2023-04-15T01:42:04.827Z,5.3600
2023-04-15T01:43:05.398Z,5.3132
2023-04-15T01:44:05.929Z,5.2653
2023-04-15T01:45:06.468Z,5.2482
2023-04-15T01:46:06.998Z,5.2162
2023-04-15T01:47:07.546Z,5.1841
2023-04-15T01:48:08.138Z,5.2049
2023-04-15T01:49:08.937Z,5.2295
2023-04-15T01:50:09.462Z,5.2879
2023-04-15T01:51:10.043Z,5.2876
2023-04-15T01:52:10.583Z,5.2627
2023-04-15T01:53:11.154Z,5.2133
2023-04-15T01:54:12.300Z,5.1438
2023-04-15T01:55:12.858Z,5.1087
2023-04-15T01:56:15.283Z,5.0236
2023-04-15T01:57:15.104Z,4.9535
2023-04-15T01:58:15.592Z,4.9128
2023-04-15T01:59:16.326Z,4.8797
2023-04-15T02:00:16.844Z,4.8756
2023-04-15T02:01:17.431Z,4.8685
2023-04-15T02:02:17.987Z,4.8748
2023-04-15T02:03:18.640Z,4.8822
2023-04-15T02:04:20.768Z,4.8965
2023-04-15T02:05:24.807Z,4.9360
2023-04-15T02:06:25.359Z,4.9644
2023-04-15T02:07:25.884Z,4.9853
2023-04-15T02:08:26.420Z,5.0049
2023-04-15T02:09:26.965Z,5.0492
2023-04-15T02:10:27.539Z,5.0564
2023-04-15T02:11:28.301Z,5.0413
2023-04-15T02:12:28.809Z,5.0236
2023-04-15T02:13:29.356Z,5.0154
2023-04-15T02:14:29.858Z,5.0429
2023-04-15T02:15:30.381Z,5.0300
2023-04-15T02:16:30.983Z,5.0187
2023-04-15T02:17:31.526Z,4.9956
2023-04-15T02:18:32.032Z,4.9988
2023-04-15T02:19:32.556Z,4.9997
2023-04-15T02:20:33.089Z,5.0088
2023-04-15T02:21:34.258Z,5.0011
2023-04-15T02:22:34.877Z,5.0379
2023-04-15T02:23:35.438Z,5.0454
2023-04-15T02:24:35.931Z,5.0500
2023-04-15T02:25:36.453Z,5.0481
2023-04-15T02:26:37.013Z,4.9834
2023-04-15T02:27:37.546Z,4.9419
2023-04-15T02:28:38.077Z,4.9337
2023-04-15T02:29:38.665Z,4.8607
2023-04-15T02:30:39.195Z,4.7988
2023-04-15T02:31:40.015Z,4.7743
2023-04-15T02:32:40.594Z,4.7917
2023-04-15T02:33:41.105Z,4.8219
2023-04-15T02:34:41.660Z,4.8407
2023-04-15T02:35:42.233Z,4.8499
2023-04-15T02:36:42.807Z,4.8142
2023-04-15T02:37:43.434Z,4.9367
2023-04-15T02:38:44.055Z,4.9728
2023-04-15T02:39:44.582Z,4.9964
2023-04-15T02:40:45.142Z,4.9826
2023-04-15T02:41:45.977Z,4.9923
2023-04-15T02:42:46.581Z,5.0294
2023-04-15T02:43:47.112Z,5.0462
2023-04-15T02:44:47.680Z,5.0077
2023-04-15T02:45:48.398Z,4.9570
2023-04-15T02:46:49.094Z,4.9402
2023-04-15T02:47:49.707Z,4.9350
2023-04-15T02:48:50.485Z,4.9234
2023-04-15T02:49:51.002Z,4.9458
2023-04-15T02:50:52.048Z,4.9493
2023-04-15T02:51:52.857Z,4.9996
2023-04-15T02:52:53.385Z,4.9487
2023-04-15T02:53:53.973Z,4.9479
2023-04-15T02:54:54.530Z,4.9300
2023-04-15T02:55:55.065Z,4.9047
2023-04-15T02:56:55.814Z,4.9033
2023-04-15T02:57:56.365Z,4.9034
2023-04-15T02:58:56.960Z,4.8696
2023-04-15T02:59:57.454Z,4.9117
2023-04-15T03:00:57.998Z,4.9361
2023-04-15T03:01:58.549Z,4.9113
2023-04-15T03:02:59.215Z,4.8992
2023-04-15T03:03:59.904Z,4.9100
2023-04-15T03:05:00.425Z,4.9590
2023-04-15T03:06:00.943Z,4.9461
2023-04-15T03:07:01.487Z,4.9678
2023-04-15T03:08:02.032Z,4.9743
2023-04-15T03:09:02.731Z,5.0019
2023-04-15T03:10:03.324Z,4.9876
2023-04-15T03:11:03.895Z,4.9645
2023-04-15T03:12:04.421Z,4.9619
2023-04-15T03:13:04.986Z,4.9468
2023-04-15T03:14:05.547Z,4.9342
2023-04-15T03:15:06.083Z,4.9183
2023-04-15T03:16:06.718Z,4.9326
2023-04-15T03:17:07.275Z,4.9606
2023-04-15T03:18:07.928Z,4.9807
2023-04-15T03:19:08.484Z,5.0003
2023-04-15T03:20:09.061Z,5.0382
2023-04-15T03:21:09.563Z,5.0594
2023-04-15T03:22:10.122Z,5.0627
2023-04-15T03:23:10.650Z,5.0383
2023-04-15T03:24:11.219Z,5.0153
2023-04-15T03:25:11.748Z,5.0104
2023-04-15T03:26:12.300Z,5.0508
2023-04-15T03:27:12.804Z,5.0751
2023-04-15T03:28:13.345Z,5.1232
2023-04-15T03:29:15.424Z,5.0927
2023-04-15T03:30:15.935Z,5.0990
2023-04-15T03:31:16.828Z,5.1210
2023-04-15T03:32:17.339Z,5.1108
2023-04-15T03:33:17.890Z,5.1477
2023-04-15T03:34:18.442Z,5.1447
2023-04-15T03:35:19.012Z,5.1452
2023-04-15T03:36:19.541Z,5.1185
2023-04-15T03:37:20.054Z,5.1172
2023-04-15T03:38:20.621Z,5.1695
2023-04-15T03:39:21.174Z,5.1945
2023-04-15T03:40:21.706Z,5.2163
2023-04-15T03:41:22.500Z,5.2160
2023-04-15T03:42:23.003Z,5.2012
2023-04-15T03:43:23.574Z,5.1405
2023-04-15T03:44:24.129Z,5.2100
2023-04-15T03:45:24.690Z,5.2036
2023-04-15T03:46:25.487Z,5.1978
2023-04-15T03:47:25.991Z,5.1687
2023-04-15T03:48:26.516Z,5.1716
2023-04-15T03:49:27.076Z,5.1711
2023-04-15T03:50:27.593Z,5.1676
2023-04-15T03:51:28.135Z,5.2049
2023-04-15T03:52:28.697Z,5.2118
2023-04-15T03:53:29.288Z,5.2034
2023-04-15T03:54:29.833Z,5.1832
2023-04-15T03:55:30.361Z,5.1631
2023-04-15T03:56:31.126Z,5.1463
2023-04-15T03:57:31.692Z,5.1676
2023-04-15T03:58:32.282Z,5.1307
2023-04-15T03:59:32.850Z,5.1144
2023-04-15T04:00:33.401Z,5.0998
2023-04-15T04:01:34.021Z,5.1086
2023-04-15T04:02:34.612Z,5.1420
2023-04-15T04:03:35.357Z,5.1079
2023-04-15T04:04:36.056Z,5.1115
2023-04-15T04:05:36.572Z,5.1354
2023-04-15T04:06:37.109Z,5.1615
2023-04-15T04:07:37.652Z,5.1353
2023-04-15T04:08:38.283Z,5.1298
2023-04-15T04:09:38.809Z,5.1103
2023-04-15T04:10:39.402Z,5.1188
2023-04-15T04:11:40.262Z,5.1331
2023-04-15T04:12:40.769Z,5.1436
2023-04-15T04:13:41.394Z,5.1368
2023-04-15T04:14:41.934Z,5.1690
2023-04-15T04:15:42.480Z,5.1855
2023-04-15T04:16:44.886Z,5.1858
2023-04-15T04:17:45.406Z,5.2248
2023-04-15T04:18:45.984Z,5.2140
2023-04-15T04:19:46.554Z,5.2323
2023-04-15T04:20:47.102Z,5.2422
2023-04-15T04:21:47.872Z,5.2033
2023-04-15T04:22:48.427Z,5.1882
2023-04-15T04:23:49.017Z,5.1681
2023-04-15T04:24:49.538Z,5.1796
2023-04-15T04:25:50.076Z,5.2746
2023-04-15T04:26:50.609Z,5.3349
2023-04-15T04:27:51.172Z,5.2850
2023-04-15T04:28:51.918Z,5.2458
2023-04-15T04:29:52.478Z,5.1995
2023-04-15T04:30:52.997Z,5.2512
2023-04-15T04:31:53.630Z,5.2075
2023-04-15T04:32:54.191Z,5.2603
2023-04-15T04:33:54.718Z,5.2792
2023-04-15T04:34:55.246Z,5.3940
2023-04-15T04:35:55.778Z,5.2857
2023-04-15T04:36:56.353Z,5.2402
2023-04-15T04:37:56.907Z,5.3621
2023-04-15T04:38:57.441Z,5.4127
2023-04-15T04:39:57.957Z,5.4720
2023-04-15T04:40:58.463Z,5.3822
2023-04-15T04:41:59.244Z,5.3517
2023-04-15T04:42:59.807Z,5.3242
2023-04-15T04:44:00.353Z,5.3366
2023-04-15T04:45:00.892Z,5.3566
2023-04-15T04:46:01.481Z,5.3472
2023-04-15T04:47:02.072Z,5.3616
2023-04-15T04:48:02.759Z,5.4136
2023-04-15T04:49:03.770Z,5.5104
2023-04-15T04:50:04.359Z,5.3643
2023-04-15T04:51:04.910Z,5.3063
2023-04-15T04:52:05.444Z,5.2843
2023-04-15T04:53:05.974Z,5.3051
2023-04-15T04:54:06.787Z,5.3429
2023-04-15T04:55:07.337Z,5.3024
2023-04-15T04:56:07.872Z,5.2711
2023-04-15T04:57:08.423Z,5.3010
2023-04-15T04:58:09.008Z,5.2424
2023-04-15T04:59:09.557Z,5.2147
2023-04-15T05:00:10.142Z,5.3541
2023-04-15T05:01:10.781Z,5.4829
2023-04-15T05:02:11.341Z,5.5112
2023-04-15T05:03:12.148Z,5.4670
2023-04-15T05:04:13.182Z,5.3814
2023-04-15T05:05:13.768Z,5.3797
2023-04-15T05:06:14.320Z,5.3563
2023-04-15T05:07:14.898Z,5.3371
2023-04-15T05:08:15.507Z,5.3131
2023-04-15T05:09:16.378Z,5.3164
2023-04-15T05:10:16.957Z,5.3525
2023-04-15T05:11:17.467Z,5.3674
2023-04-15T05:12:17.988Z,5.3498
2023-04-15T05:13:18.545Z,5.3483
2023-04-15T05:14:19.138Z,5.3354
2023-04-15T05:15:19.679Z,5.3258
2023-04-15T05:16:20.295Z,5.3657
2023-04-15T05:17:20.903Z,5.3750
2023-04-15T05:18:21.447Z,5.4219
2023-04-15T05:19:22.012Z,5.5598
2023-04-15T05:20:22.547Z,5.5523
2023-04-15T05:21:23.079Z,5.4953
2023-04-15T05:22:23.634Z,5.4772
2023-04-15T05:23:24.517Z,5.4926
2023-04-15T05:24:25.066Z,5.4775
2023-04-15T05:25:25.584Z,5.4921
2023-04-15T05:26:26.143Z,5.5419
2023-04-15T05:27:26.725Z,5.5391
2023-04-15T05:28:27.271Z,5.5631
2023-04-15T05:29:27.817Z,5.5325
2023-04-15T05:30:28.348Z,5.5905
2023-04-15T05:31:29.209Z,5.6444
2023-04-15T05:32:29.840Z,5.6360
2023-04-15T05:33:30.416Z,5.6096
2023-04-15T05:34:31.035Z,5.5649
2023-04-15T05:35:31.603Z,5.5713
2023-04-15T05:36:32.189Z,5.7095
2023-04-15T05:37:32.764Z,5.6965
2023-04-15T05:38:33.556Z,5.8164
2023-04-15T05:39:34.163Z,5.8354
2023-04-15T05:40:34.755Z,5.8737
2023-04-15T05:41:35.336Z,5.7868
2023-04-15T05:42:35.899Z,5.7375
2023-04-15T05:43:36.521Z,5.8022
2023-04-15T05:44:37.153Z,5.8288
2023-04-15T05:45:37.729Z,5.8559
2023-04-15T05:46:38.583Z,5.7783
2023-04-15T05:47:39.259Z,5.7849
2023-04-15T05:48:39.895Z,5.8528
2023-04-15T05:49:40.492Z,5.9921
2023-04-15T05:50:41.071Z,6.0930
2023-04-15T05:51:41.733Z,6.0160
2023-04-15T05:52:42.277Z,6.0947
2023-04-15T05:53:42.851Z,6.2105
2023-04-15T05:54:43.438Z,6.2127
2023-04-15T05:55:44.040Z,6.0802
2023-04-15T05:56:44.617Z,6.0711
2023-04-15T05:57:45.227Z,6.0699
2023-04-15T05:58:46.017Z,6.1602
2023-04-15T05:59:46.562Z,6.1106
2023-04-15T06:00:47.149Z,6.2637
2023-04-15T06:01:47.981Z,6.1560
2023-04-15T06:02:48.661Z,6.1399
2023-04-15T06:03:49.445Z,6.0884
2023-04-15T06:04:50.186Z,6.0656
2023-04-15T06:05:50.688Z,6.0501
2023-04-15T06:06:51.256Z,6.1013
2023-04-15T06:07:51.823Z,6.1271
2023-04-15T06:08:52.458Z,6.1231
2023-04-15T06:09:53.040Z,6.2116
2023-04-15T06:10:53.622Z,6.3701
2023-04-15T06:11:54.310Z,6.5147
2023-04-15T06:12:54.838Z,6.6328
2023-04-15T06:13:55.414Z,6.8801
2023-04-15T06:14:56.022Z,7.0954
2023-04-15T06:15:56.605Z,7.1369
2023-04-15T06:16:57.247Z,6.9918
2023-04-15T06:17:57.830Z,7.2656
2023-04-15T06:18:58.436Z,7.1996
2023-04-15T06:19:59.016Z,7.2392
2023-04-15T06:20:59.622Z,7.0059
2023-04-15T06:22:00.228Z,7.0251
2023-04-15T06:23:00.823Z,7.0901
2023-04-15T06:24:01.473Z,7.1358
2023-04-15T06:25:02.116Z,7.1388
2023-04-15T06:26:02.712Z,7.3012
2023-04-15T06:27:03.312Z,7.4000
2023-04-15T06:28:03.898Z,7.5062
2023-04-15T06:29:04.483Z,7.6009
2023-04-15T06:30:05.088Z,7.6185
2023-04-15T06:31:07.269Z,7.7431
2023-04-15T06:32:07.827Z,7.5995
2023-04-15T06:33:08.467Z,7.7344
2023-04-15T06:34:09.105Z,8.0040
2023-04-15T06:35:09.698Z,8.1890
2023-04-15T06:36:10.355Z,8.0290
2023-04-15T06:37:10.904Z,7.9363
2023-04-15T06:38:11.503Z,7.8452
2023-04-15T06:39:12.079Z,7.7918
2023-04-15T06:40:12.675Z,7.8507
2023-04-15T06:41:13.256Z,7.6912
2023-04-15T06:42:13.848Z,7.8466
2023-04-15T06:43:14.477Z,8.0586
2023-04-15T06:44:15.080Z,7.8757
2023-04-15T06:45:15.701Z,8.0723
2023-04-15T06:46:16.368Z,7.9446
2023-04-15T06:47:17.017Z,7.9800
2023-04-15T06:48:17.629Z,7.9927
2023-04-15T06:49:18.237Z,7.9451
2023-04-15T06:50:18.866Z,7.9016
2023-04-15T06:51:19.457Z,7.9779
2023-04-15T06:52:20.074Z,7.8411
2023-04-15T06:53:20.624Z,7.5243
2023-04-15T06:54:21.234Z,7.7875
2023-04-15T06:55:21.828Z,7.9691
2023-04-15T06:56:22.408Z,7.8893
2023-04-15T06:57:23.017Z,7.8149
2023-04-15T06:58:23.571Z,7.8127
2023-04-15T06:59:24.145Z,7.6334
2023-04-15T07:00:24.779Z,7.7033
2023-04-15T07:01:25.390Z,7.8683
2023-04-15T07:02:26.127Z,7.6663
2023-04-15T07:03:26.731Z,7.7384
2023-04-15T07:04:27.335Z,7.7684
2023-04-15T07:05:27.985Z,7.7988
2023-04-15T07:06:28.625Z,8.0062
2023-04-15T07:07:29.191Z,8.0334
2023-04-15T07:08:30.025Z,7.9478
2023-04-15T07:09:30.595Z,8.1920
2023-04-15T07:10:31.190Z,8.2060
2023-04-15T07:11:31.789Z,8.0060
2023-04-15T07:12:32.365Z,8.1537
2023-04-15T07:13:32.936Z,8.2528
2023-04-15T07:14:33.520Z,8.4989
2023-04-15T07:15:34.123Z,8.6166
2023-04-15T07:16:34.770Z,8.7053
2023-04-15T07:17:35.411Z,8.4692
2023-04-15T07:18:35.993Z,8.3045
2023-04-15T07:19:36.590Z,8.1637
2023-04-15T07:20:37.232Z,8.2754
2023-04-15T07:21:38.928Z,8.1677
2023-04-15T07:22:40.522Z,8.2153
2023-04-15T07:23:41.347Z,8.3913
2023-04-15T07:24:41.922Z,8.2512
2023-04-15T07:25:42.541Z,8.2409
2023-04-15T07:26:43.105Z,8.3973
2023-04-15T07:27:43.691Z,8.3854
2023-04-15T07:28:44.307Z,8.4595
2023-04-15T07:29:44.902Z,8.3838
2023-04-15T07:30:45.499Z,8.3466
2023-04-15T07:31:46.119Z,8.1438
2023-04-15T07:32:46.758Z,8.0590
2023-04-15T07:33:47.303Z,8.3846
2023-04-15T07:34:47.908Z,8.1920
2023-04-15T07:35:48.530Z,8.0484
2023-04-15T07:36:49.116Z,7.7780
2023-04-15T07:37:49.912Z,8.0164
2023-04-15T07:38:50.495Z,8.0956
2023-04-15T07:39:51.124Z,8.0363
2023-04-15T07:40:51.865Z,7.3931
2023-04-15T07:41:52.438Z,7.0450
2023-04-15T07:42:53.009Z,7.0097
2023-04-15T07:43:53.685Z,6.9872
2023-04-15T07:44:54.259Z,7.0266
2023-04-15T07:45:55.114Z,7.2056
2023-04-15T07:46:55.659Z,7.5216
2023-04-15T07:47:56.381Z,7.3618
2023-04-15T07:48:56.986Z,7.5331
2023-04-15T07:49:57.616Z,7.6400
2023-04-15T07:50:58.226Z,7.5650
2023-04-15T07:51:58.826Z,7.3384
2023-04-15T07:52:59.665Z,7.3080
2023-04-15T07:54:00.241Z,7.4771
2023-04-15T07:55:00.874Z,7.6605
2023-04-15T07:56:01.733Z,7.6341
2023-04-15T07:57:02.330Z,7.5862
2023-04-15T07:58:03.041Z,7.8618
2023-04-15T07:59:03.805Z,7.9602
2023-04-15T08:00:04.566Z,8.1615
2023-04-15T08:01:05.171Z,8.1234
2023-04-15T08:02:05.932Z,7.7841
2023-04-15T08:03:06.573Z,8.0967
2023-04-15T08:04:07.377Z,7.6408
2023-04-15T08:05:07.982Z,7.3867
2023-04-15T08:06:08.577Z,7.2211
2023-04-15T08:07:09.157Z,7.3535
2023-04-15T08:08:09.751Z,7.5728
2023-04-15T08:09:10.357Z,7.7451
2023-04-15T08:10:11.112Z,7.9204
2023-04-15T08:11:11.921Z,7.8469
2023-04-15T08:12:12.505Z,8.0472
2023-04-15T08:13:13.106Z,8.3307
2023-04-15T08:14:13.689Z,8.4188
2023-04-15T08:15:14.296Z,8.4386
2023-04-15T08:16:14.866Z,8.6970
2023-04-15T08:17:15.627Z,8.9501
2023-04-15T08:18:16.277Z,8.8096
2023-04-15T08:19:16.872Z,8.8225
2023-04-15T08:20:17.503Z,8.3027
2023-04-15T08:21:18.165Z,7.8706
2023-04-15T08:22:20.105Z,8.1582
2023-04-15T08:23:22.175Z,7.8807
2023-04-15T08:24:22.818Z,7.9773
2023-04-15T08:25:23.430Z,7.8987
2023-04-15T08:26:24.022Z,8.0841
2023-04-15T08:27:24.608Z,8.2688
2023-04-15T08:28:25.199Z,8.3698
2023-04-15T08:29:25.838Z,8.9251
2023-04-15T08:30:26.666Z,9.3682
2023-04-15T08:31:27.403Z,9.6568
2023-04-15T08:32:27.985Z,9.5649
2023-04-15T08:33:28.904Z,9.5509
2023-04-15T08:34:29.484Z,9.4510
2023-04-15T08:35:30.158Z,9.5503
2023-04-15T08:36:30.759Z,9.8292
2023-04-15T08:37:31.551Z,9.7798
2023-04-15T08:38:32.167Z,9.6943
2023-04-15T08:39:32.835Z,9.6861
2023-04-15T08:40:33.689Z,9.1415
2023-04-15T08:41:34.275Z,8.9014
2023-04-15T08:42:34.901Z,8.7141
2023-04-15T08:43:35.526Z,8.7529
2023-04-15T08:44:36.102Z,8.7902
2023-04-15T08:45:36.692Z,8.7752
2023-04-15T08:46:37.371Z,8.9476
2023-04-15T08:47:38.204Z,9.3834
2023-04-15T08:48:38.817Z,9.5572
2023-04-15T08:49:39.481Z,9.6896
2023-04-15T08:50:40.124Z,9.6422
2023-04-15T08:51:40.731Z,9.7669
2023-04-15T08:52:41.555Z,9.6067
2023-04-15T08:53:42.179Z,9.6563
2023-04-15T08:54:42.779Z,9.8071
2023-04-15T08:55:43.567Z,10.0608
2023-04-15T08:56:44.379Z,9.8961
2023-04-15T08:57:44.953Z,9.7196
2023-04-15T08:58:45.508Z,10.1564
2023-04-15T08:59:46.086Z,10.1110
2023-04-15T09:00:46.760Z,10.3358
2023-04-15T09:01:47.445Z,10.3859
2023-04-15T09:02:48.152Z,10.3033
2023-04-15T09:03:48.852Z,10.0977
2023-04-15T09:04:49.537Z,9.7688
2023-04-15T09:05:51.461Z,9.4774
2023-04-15T09:06:50.227Z,9.5967
2023-04-15T09:07:50.858Z,9.7876
2023-04-15T09:08:51.385Z,9.5281
2023-04-15T09:09:51.949Z,9.6891
2023-04-15T09:10:52.559Z,9.2597
2023-04-15T09:11:53.158Z,9.1472
2023-04-15T09:12:53.769Z,9.3461
2023-04-15T09:13:54.357Z,9.3242
2023-04-15T09:14:54.932Z,9.6169
2023-04-15T09:15:55.497Z,9.3503
2023-04-15T09:16:56.106Z,9.4285
2023-04-15T09:17:56.715Z,9.4673
2023-04-15T09:18:57.326Z,9.1620
2023-04-15T09:19:57.908Z,9.2347
2023-04-15T09:20:58.490Z,8.9039
2023-04-15T09:21:59.414Z,8.7638
2023-04-15T09:23:00.440Z,9.2272
2023-04-15T09:24:01.403Z,9.7595
2023-04-15T09:25:02.437Z,9.5712
2023-04-15T09:26:03.052Z,9.6599
2023-04-15T09:27:03.680Z,10.2125
2023-04-15T09:28:04.494Z,10.0143
2023-04-15T09:29:05.101Z,10.4846
2023-04-15T09:30:05.668Z,10.5835
2023-04-15T09:31:06.283Z,9.7202
2023-04-15T09:32:06.869Z,9.7973
2023-04-15T09:33:07.511Z,10.3237
2023-04-15T09:34:08.056Z,10.6520
2023-04-15T09:35:08.893Z,10.4923
2023-04-15T09:36:09.587Z,10.0440
2023-04-15T09:37:10.543Z,10.6041
2023-04-15T09:38:11.113Z,11.1223
2023-04-15T09:39:11.680Z,10.9534
2023-04-15T09:40:12.269Z,10.4608
2023-04-15T09:41:12.842Z,10.4626
2023-04-15T09:42:13.427Z,10.8691
2023-04-15T09:43:14.032Z,11.1688
2023-04-15T09:44:14.582Z,10.8928
2023-04-15T09:45:15.200Z,10.8581
2023-04-15T09:46:15.793Z,10.7560
2023-04-15T09:47:16.672Z,10.4359
2023-04-15T09:48:17.299Z,10.7475
2023-04-15T09:49:17.973Z,10.6179
2023-04-15T09:50:18.551Z,10.3942
2023-04-15T09:51:19.213Z,10.3812
2023-04-15T09:52:19.794Z,10.8242
2023-04-15T09:53:20.387Z,11.0965
2023-04-15T09:54:20.974Z,11.0805
2023-04-15T09:55:21.552Z,10.8989
2023-04-15T09:56:22.138Z,9.8222
2023-04-15T09:57:22.693Z,9.4551
2023-04-15T09:58:23.278Z,9.7779
2023-04-15T09:59:23.844Z,9.9698
2023-04-15T10:00:24.985Z,10.1841
2023-04-15T10:01:25.565Z,9.9813
2023-04-15T10:02:26.287Z,10.0491
2023-04-15T10:03:27.000Z,10.4381
2023-04-15T10:04:27.958Z,10.4776
2023-04-15T10:05:29.775Z,10.2554
2023-04-15T10:06:30.777Z,9.9682
2023-04-15T10:07:31.349Z,9.7611
2023-04-15T10:08:31.958Z,9.8489
2023-04-15T10:09:32.553Z,9.6423
2023-04-15T10:10:33.133Z,9.7155
2023-04-15T10:11:33.692Z,9.5895
2023-04-15T10:12:34.315Z,9.1428
2023-04-15T10:13:34.877Z,9.1593
2023-04-15T10:14:35.506Z,9.4416
2023-04-15T10:15:36.090Z,9.5016
2023-04-15T10:16:36.634Z,9.6555
2023-04-15T10:17:37.461Z,9.7095
2023-04-15T10:18:38.150Z,9.8820
2023-04-15T10:19:38.771Z,9.7727
2023-04-15T10:20:39.365Z,9.6557
2023-04-15T10:21:39.949Z,9.1167
2023-04-15T10:22:40.757Z,9.1108
2023-04-15T10:23:41.280Z,9.5071
2023-04-15T10:25:44.935Z,9.5581
2023-04-15T10:26:45.556Z,9.4648
2023-04-15T10:27:46.122Z,9.7092
2023-04-15T10:28:46.710Z,9.7086
2023-04-15T10:29:47.299Z,9.6940
2023-04-15T10:30:47.880Z,9.1218
2023-04-15T10:31:48.576Z,8.9119
2023-04-15T10:32:49.169Z,8.9505
2023-04-15T10:33:49.733Z,8.9977
2023-04-15T10:34:51.071Z,9.2053
2023-04-15T10:35:52.414Z,8.9779
2023-04-15T10:36:52.978Z,9.0526
2023-04-15T10:37:53.552Z,8.5022
2023-04-15T10:38:54.132Z,8.2853
2023-04-15T10:39:54.910Z,8.2076
2023-04-15T10:40:55.514Z,8.5069
2023-04-15T10:41:56.167Z,8.8949
2023-04-15T10:42:56.725Z,9.1156
2023-04-15T10:43:57.295Z,9.4485
2023-04-15T10:44:57.868Z,9.4219
2023-04-15T10:45:58.445Z,9.1587
2023-04-15T10:46:59.277Z,9.5826
2023-04-15T10:48:01.596Z,9.7111
2023-04-15T10:49:00.359Z,9.8611
2023-04-15T10:50:00.985Z,9.1167
2023-04-15T10:51:01.591Z,9.0682
2023-04-15T10:52:02.167Z,8.5413
2023-04-15T10:53:02.726Z,8.6576
2023-04-15T10:54:03.536Z,8.5164
2023-04-15T10:55:04.114Z,8.6362
2023-04-15T10:56:04.682Z,8.3954
2023-04-15T10:57:05.250Z,8.4320
2023-04-15T10:58:05.866Z,8.6023
2023-04-15T10:59:06.431Z,8.9837
2023-04-15T11:00:07.001Z,9.1456
2023-04-15T11:01:07.616Z,9.6252
2023-04-15T11:02:08.479Z,9.5719
2023-04-15T11:03:09.518Z,9.5060
2023-04-15T11:04:10.543Z,8.8536
2023-04-15T11:05:11.097Z,8.4278
2023-04-15T11:06:11.669Z,8.1559
2023-04-15T11:07:12.257Z,8.5753
2023-04-15T11:08:12.868Z,8.5594
2023-04-15T11:09:13.690Z,8.4708
2023-04-15T11:10:14.279Z,8.7986
2023-04-15T11:11:14.831Z,9.4397
2023-04-15T11:12:15.445Z,9.3085
2023-04-15T11:13:16.062Z,9.0022
2023-04-15T11:14:16.632Z,8.6587
2023-04-15T11:15:17.199Z,8.9879
2023-04-15T11:16:17.820Z,9.1598
2023-04-15T11:17:18.698Z,9.2276
2023-04-15T11:18:19.297Z,8.9884
2023-04-15T11:19:19.908Z,9.1035
2023-04-15T11:20:20.499Z,8.5487
2023-04-15T11:21:21.088Z,8.6036
2023-04-15T11:22:21.666Z,8.7322
2023-04-15T11:23:22.534Z,8.8323
2023-04-15T11:24:23.318Z,8.7831
2023-04-15T11:25:24.043Z,8.9091
2023-04-15T11:26:24.697Z,8.5214
2023-04-15T11:27:25.293Z,8.1395
2023-04-15T11:28:25.856Z,8.3846
2023-04-15T11:29:26.465Z,8.2701
2023-04-15T11:30:27.080Z,8.2539
2023-04-15T11:31:27.701Z,8.4818
2023-04-15T11:32:28.282Z,8.6244
2023-04-15T11:33:28.911Z,8.2464
2023-04-15T11:34:29.493Z,8.0483
2023-04-15T11:35:30.084Z,7.8881
2023-04-15T11:36:30.645Z,8.0167
2023-04-15T11:37:31.252Z,7.9250
2023-04-15T11:38:31.834Z,7.8859
2023-04-15T11:39:32.429Z,8.0073
2023-04-15T11:40:32.980Z,8.0954
2023-04-15T11:41:33.579Z,8.3840
2023-04-15T11:42:48.741Z,8.1127
2023-04-15T11:43:37.148Z,8.1242
2023-04-15T11:44:37.735Z,8.0736
2023-04-15T11:45:38.340Z,8.0971
2023-04-15T11:46:38.912Z,8.1887
2023-04-15T11:47:39.509Z,8.3884
2023-04-15T11:48:40.113Z,8.2027
2023-04-15T11:49:40.953Z,8.3931
2023-04-15T11:50:41.559Z,8.1449
2023-04-15T11:51:42.099Z,8.1323
2023-04-15T11:52:42.656Z,8.0439
2023-04-15T11:53:43.281Z,8.3893
2023-04-15T11:54:43.873Z,8.8634
2023-04-15T11:55:44.683Z,9.2372
2023-04-15T11:56:45.244Z,9.5840
2023-04-15T11:57:45.839Z,9.9431
2023-04-15T11:58:46.572Z,9.6335
2023-04-15T11:59:47.220Z,9.2620
2023-04-15T12:00:47.878Z,9.1822
2023-04-15T12:01:48.711Z,8.4162
2023-04-15T12:02:49.360Z,8.3087
2023-04-15T12:03:50.545Z,8.3277
2023-04-15T12:04:51.360Z,8.8117
2023-04-15T12:05:51.976Z,8.8434
2023-04-15T12:06:52.585Z,8.7440
2023-04-15T12:07:53.210Z,8.8418
2023-04-15T12:08:53.816Z,9.3816
2023-04-15T12:09:54.443Z,10.2125
2023-04-15T12:10:55.070Z,10.4808
2023-04-15T12:11:55.664Z,10.2436
2023-04-15T12:12:56.284Z,9.2554
2023-04-15T12:13:56.885Z,9.0225
2023-04-15T12:14:57.541Z,8.8904
2023-04-15T12:15:58.186Z,8.8329
2023-04-15T12:16:58.813Z,8.9147
2023-04-15T12:17:59.743Z,9.4928
2023-04-15T12:19:02.342Z,9.0950
2023-04-15T12:20:02.993Z,9.2988
2023-04-15T12:21:03.587Z,9.1411
2023-04-15T12:22:04.212Z,9.9829
2023-04-15T12:23:04.807Z,10.4736
2023-04-15T12:24:05.687Z,9.9488
2023-04-15T12:25:06.438Z,10.4191
2023-04-15T12:26:07.055Z,10.9974
2023-04-15T12:27:07.826Z,9.9519
2023-04-15T12:28:08.439Z,9.9313
2023-04-15T12:29:09.074Z,9.5653
2023-04-15T12:30:09.691Z,9.2561
2023-04-15T12:31:10.338Z,9.9343
2023-04-15T12:32:10.924Z,10.1494
2023-04-15T12:33:11.541Z,10.1234
2023-04-15T12:34:12.156Z,9.5795
2023-04-15T12:35:12.786Z,9.3096
2023-04-15T12:36:13.413Z,9.6046
2023-04-15T12:37:14.015Z,9.4810
2023-04-15T12:38:14.634Z,9.7510
2023-04-15T12:39:15.263Z,9.9258
2023-04-15T12:40:15.891Z,9.8437
2023-04-15T12:41:16.701Z,9.6927
2023-04-15T12:42:17.356Z,9.6500
2023-04-15T12:43:17.951Z,9.7488
2023-04-15T12:44:18.585Z,9.8803